sensor_id;sensor_type;location;lat;lon;timestamp;P1;durP1;ratioP1;P2;durP2;ratioP2
47403;SDS011;33157;51.508;4.288;2024-03-08T00:02:16;44.15;;;23.52;;
47403;SDS011;33157;51.508;4.288;2024-03-08T00:07:17;47.03;;;24.92;;
47403;SDS011;33157;51.508;4.288;2024-03-08T00:12:17;41.65;;;23.38;;
47403;SDS011;33157;51.508;4.288;2024-03-08T00:17:18;49.03;;;23.88;;
47403;SDS011;33157;51.508;4.288;2024-03-08T00:22:18;42.38;;;23.13;;
47403;SDS011;33157;51.508;4.288;2024-03-08T00:27:18;43.95;;;24.02;;
47403;SDS011;33157;51.508;4.288;2024-03-08T00:32:21;42.28;;;22.40;;
47403;SDS011;33157;51.508;4.288;2024-03-08T00:37:24;46.13;;;22.35;;
47403;SDS011;33157;51.508;4.288;2024-03-08T00:42:27;40.65;;;22.27;;
47403;SDS011;33157;51.508;4.288;2024-03-08T00:47:27;43.30;;;23.13;;
47403;SDS011;33157;51.508;4.288;2024-03-08T00:52:28;41.97;;;21.67;;
47403;SDS011;33157;51.508;4.288;2024-03-08T00:57:29;48.10;;;23.13;;
47403;SDS011;33157;51.508;4.288;2024-03-08T01:02:30;39.67;;;21.42;;
47403;SDS011;33157;51.508;4.288;2024-03-08T01:07:30;41.67;;;21.95;;
47403;SDS011;33157;51.508;4.288;2024-03-08T01:12:30;39.00;;;22.20;;
47403;SDS011;33157;51.508;4.288;2024-03-08T01:17:31;44.88;;;22.42;;
47403;SDS011;33157;51.508;4.288;2024-03-08T01:22:31;33.60;;;20.95;;
47403;SDS011;33157;51.508;4.288;2024-03-08T01:27:31;37.17;;;21.15;;
47403;SDS011;33157;51.508;4.288;2024-03-08T01:32:32;40.33;;;22.08;;
47403;SDS011;33157;51.508;4.288;2024-03-08T01:37:33;41.13;;;21.60;;
47403;SDS011;33157;51.508;4.288;2024-03-08T01:42:34;35.90;;;21.58;;
47403;SDS011;33157;51.508;4.288;2024-03-08T01:47:37;36.45;;;20.58;;
47403;SDS011;33157;51.508;4.288;2024-03-08T01:52:38;49.83;;;23.23;;
47403;SDS011;33157;51.508;4.288;2024-03-08T01:57:38;33.78;;;20.23;;
47403;SDS011;33157;51.508;4.288;2024-03-08T02:02:39;35.40;;;21.17;;
47403;SDS011;33157;51.508;4.288;2024-03-08T02:07:42;34.60;;;21.08;;
47403;SDS011;33157;51.508;4.288;2024-03-08T02:12:44;42.15;;;20.67;;
47403;SDS011;33157;51.508;4.288;2024-03-08T02:17:44;34.58;;;20.60;;
47403;SDS011;33157;51.508;4.288;2024-03-08T02:22:45;34.13;;;20.60;;
47403;SDS011;33157;51.508;4.288;2024-03-08T02:27:45;33.72;;;21.25;;
47403;SDS011;33157;51.508;4.288;2024-03-08T02:32:46;32.03;;;19.33;;
47403;SDS011;33157;51.508;4.288;2024-03-08T02:37:46;40.53;;;21.75;;
47403;SDS011;33157;51.508;4.288;2024-03-08T02:42:47;36.53;;;21.50;;
47403;SDS011;33157;51.508;4.288;2024-03-08T02:47:48;32.60;;;20.20;;
47403;SDS011;33157;51.508;4.288;2024-03-08T02:52:50;33.50;;;20.45;;
47403;SDS011;33157;51.508;4.288;2024-03-08T02:57:50;38.15;;;20.88;;
47403;SDS011;33157;51.508;4.288;2024-03-08T03:02:51;33.67;;;20.55;;
47403;SDS011;33157;51.508;4.288;2024-03-08T03:07:55;28.90;;;19.75;;
47403;SDS011;33157;51.508;4.288;2024-03-08T03:12:55;32.20;;;19.88;;
47403;SDS011;33157;51.508;4.288;2024-03-08T03:17:56;32.25;;;19.73;;
47403;SDS011;33157;51.508;4.288;2024-03-08T03:22:56;32.83;;;19.40;;
47403;SDS011;33157;51.508;4.288;2024-03-08T03:27:58;32.25;;;20.70;;
47403;SDS011;33157;51.508;4.288;2024-03-08T03:33:01;35.95;;;19.85;;
47403;SDS011;33157;51.508;4.288;2024-03-08T03:38:06;37.95;;;21.30;;
47403;SDS011;33157;51.508;4.288;2024-03-08T03:43:07;32.78;;;18.83;;
47403;SDS011;33157;51.508;4.288;2024-03-08T03:48:07;32.03;;;20.13;;
47403;SDS011;33157;51.508;4.288;2024-03-08T03:53:11;32.88;;;20.73;;
47403;SDS011;33157;51.508;4.288;2024-03-08T03:58:13;32.47;;;19.63;;
47403;SDS011;33157;51.508;4.288;2024-03-08T04:03:14;35.33;;;20.38;;
47403;SDS011;33157;51.508;4.288;2024-03-08T04:08:14;35.17;;;21.17;;
47403;SDS011;33157;51.508;4.288;2024-03-08T04:13:15;32.58;;;21.27;;
47403;SDS011;33157;51.508;4.288;2024-03-08T04:18:15;36.42;;;20.95;;
47403;SDS011;33157;51.508;4.288;2024-03-08T04:23:16;31.95;;;19.52;;
47403;SDS011;33157;51.508;4.288;2024-03-08T04:28:17;29.90;;;18.60;;
47403;SDS011;33157;51.508;4.288;2024-03-08T04:33:18;32.10;;;20.33;;
47403;SDS011;33157;51.508;4.288;2024-03-08T04:38:18;32.38;;;20.08;;
47403;SDS011;33157;51.508;4.288;2024-03-08T04:43:19;32.90;;;19.85;;
47403;SDS011;33157;51.508;4.288;2024-03-08T04:48:20;31.30;;;21.10;;
47403;SDS011;33157;51.508;4.288;2024-03-08T04:53:21;31.08;;;19.02;;
47403;SDS011;33157;51.508;4.288;2024-03-08T04:58:21;32.55;;;19.98;;
47403;SDS011;33157;51.508;4.288;2024-03-08T05:03:21;32.53;;;20.02;;
47403;SDS011;33157;51.508;4.288;2024-03-08T05:08:22;35.58;;;21.83;;
47403;SDS011;33157;51.508;4.288;2024-03-08T05:13:22;31.65;;;20.23;;
47403;SDS011;33157;51.508;4.288;2024-03-08T05:18:23;33.50;;;20.58;;
47403;SDS011;33157;51.508;4.288;2024-03-08T05:23:23;35.42;;;21.15;;
47403;SDS011;33157;51.508;4.288;2024-03-08T05:28:24;32.70;;;21.30;;
47403;SDS011;33157;51.508;4.288;2024-03-08T05:33:24;30.05;;;20.55;;
47403;SDS011;33157;51.508;4.288;2024-03-08T05:38:25;31.48;;;20.13;;
47403;SDS011;33157;51.508;4.288;2024-03-08T05:43:25;32.60;;;20.95;;
47403;SDS011;33157;51.508;4.288;2024-03-08T05:48:25;31.95;;;21.35;;
47403;SDS011;33157;51.508;4.288;2024-03-08T05:53:26;33.17;;;20.45;;
47403;SDS011;33157;51.508;4.288;2024-03-08T05:58:26;36.67;;;20.90;;
47403;SDS011;33157;51.508;4.288;2024-03-08T06:03:28;37.40;;;22.73;;
47403;SDS011;33157;51.508;4.288;2024-03-08T06:08:30;33.05;;;20.70;;
47403;SDS011;33157;51.508;4.288;2024-03-08T06:13:30;32.33;;;20.48;;
47403;SDS011;33157;51.508;4.288;2024-03-08T06:18:31;31.88;;;20.95;;
47403;SDS011;33157;51.508;4.288;2024-03-08T06:23:34;37.40;;;21.73;;
47403;SDS011;33157;51.508;4.288;2024-03-08T06:28:41;34.05;;;21.45;;
47403;SDS011;33157;51.508;4.288;2024-03-08T06:33:41;32.95;;;21.75;;
47403;SDS011;33157;51.508;4.288;2024-03-08T06:38:41;35.05;;;20.60;;
47403;SDS011;33157;51.508;4.288;2024-03-08T06:43:42;35.90;;;20.90;;
47403;SDS011;33157;51.508;4.288;2024-03-08T06:48:43;33.70;;;20.40;;
47403;SDS011;33157;51.508;4.288;2024-03-08T06:58:46;34.30;;;21.50;;
47403;SDS011;33157;51.508;4.288;2024-03-08T07:03:46;30.50;;;20.92;;
47403;SDS011;33157;51.508;4.288;2024-03-08T07:08:47;31.08;;;19.98;;
47403;SDS011;33157;51.508;4.288;2024-03-08T07:13:48;34.42;;;21.27;;
47403;SDS011;33157;51.508;4.288;2024-03-08T07:18:49;32.95;;;20.58;;
47403;SDS011;33157;51.508;4.288;2024-03-08T07:23:52;33.25;;;20.33;;
47403;SDS011;33157;51.508;4.288;2024-03-08T07:29:01;29.50;;;20.08;;
47403;SDS011;33157;51.508;4.288;2024-03-08T07:34:01;34.00;;;21.13;;
47403;SDS011;33157;51.508;4.288;2024-03-08T07:39:03;34.28;;;21.55;;
47403;SDS011;33157;51.508;4.288;2024-03-08T07:44:11;32.58;;;19.83;;
47403;SDS011;33157;51.508;4.288;2024-03-08T07:49:14;29.83;;;19.20;;
47403;SDS011;33157;51.508;4.288;2024-03-08T07:54:15;31.23;;;19.30;;
47403;SDS011;33157;51.508;4.288;2024-03-08T07:59:15;28.83;;;18.85;;
47403;SDS011;33157;51.508;4.288;2024-03-08T08:04:16;39.22;;;21.30;;
47403;SDS011;33157;51.508;4.288;2024-03-08T08:09:18;32.88;;;20.25;;
47403;SDS011;33157;51.508;4.288;2024-03-08T08:14:28;35.90;;;20.08;;
47403;SDS011;33157;51.508;4.288;2024-03-08T08:19:31;30.48;;;19.98;;
47403;SDS011;33157;51.508;4.288;2024-03-08T08:24:35;31.10;;;20.08;;
47403;SDS011;33157;51.508;4.288;2024-03-08T08:29:36;30.48;;;18.50;;
47403;SDS011;33157;51.508;4.288;2024-03-08T08:34:37;29.30;;;18.55;;
47403;SDS011;33157;51.508;4.288;2024-03-08T08:39:37;29.55;;;18.40;;
47403;SDS011;33157;51.508;4.288;2024-03-08T08:44:38;26.05;;;17.55;;
47403;SDS011;33157;51.508;4.288;2024-03-08T08:49:38;31.73;;;19.25;;
47403;SDS011;33157;51.508;4.288;2024-03-08T08:54:38;29.30;;;18.05;;
47403;SDS011;33157;51.508;4.288;2024-03-08T08:59:39;27.88;;;18.08;;
47403;SDS011;33157;51.508;4.288;2024-03-08T09:04:39;27.55;;;18.42;;
47403;SDS011;33157;51.508;4.288;2024-03-08T09:09:41;23.27;;;17.40;;
47403;SDS011;33157;51.508;4.288;2024-03-08T09:14:42;20.33;;;14.75;;
47403;SDS011;33157;51.508;4.288;2024-03-08T09:19:43;20.43;;;14.93;;
47403;SDS011;33157;51.508;4.288;2024-03-08T09:24:44;23.03;;;16.30;;
47403;SDS011;33157;51.508;4.288;2024-03-08T09:29:45;20.38;;;15.38;;
47403;SDS011;33157;51.508;4.288;2024-03-08T09:34:46;18.77;;;14.63;;
47403;SDS011;33157;51.508;4.288;2024-03-08T09:39:46;22.40;;;15.00;;
47403;SDS011;33157;51.508;4.288;2024-03-08T09:44:46;18.57;;;14.70;;
47403;SDS011;33157;51.508;4.288;2024-03-08T09:49:47;19.60;;;14.85;;
47403;SDS011;33157;51.508;4.288;2024-03-08T09:54:47;18.53;;;14.23;;
47403;SDS011;33157;51.508;4.288;2024-03-08T09:59:49;18.95;;;14.88;;
47403;SDS011;33157;51.508;4.288;2024-03-08T10:04:51;17.17;;;14.60;;
47403;SDS011;33157;51.508;4.288;2024-03-08T10:09:53;17.83;;;15.10;;
47403;SDS011;33157;51.508;4.288;2024-03-08T10:14:54;19.38;;;14.18;;
47403;SDS011;33157;51.508;4.288;2024-03-08T10:19:57;20.25;;;13.73;;
47403;SDS011;33157;51.508;4.288;2024-03-08T10:25:00;19.88;;;13.68;;
47403;SDS011;33157;51.508;4.288;2024-03-08T10:30:00;17.90;;;13.20;;
47403;SDS011;33157;51.508;4.288;2024-03-08T10:35:01;19.05;;;13.20;;
47403;SDS011;33157;51.508;4.288;2024-03-08T10:40:03;17.30;;;12.82;;
47403;SDS011;33157;51.508;4.288;2024-03-08T10:45:19;18.90;;;12.45;;
47403;SDS011;33157;51.508;4.288;2024-03-08T10:50:23;16.27;;;12.60;;
47403;SDS011;33157;51.508;4.288;2024-03-08T10:55:25;19.48;;;13.27;;
47403;SDS011;33157;51.508;4.288;2024-03-08T11:00:26;16.75;;;11.85;;
47403;SDS011;33157;51.508;4.288;2024-03-08T11:05:37;19.02;;;13.48;;
47403;SDS011;33157;51.508;4.288;2024-03-08T11:10:50;19.05;;;12.55;;
47403;SDS011;33157;51.508;4.288;2024-03-08T11:15:51;19.33;;;12.73;;
47403;SDS011;33157;51.508;4.288;2024-03-08T11:20:55;18.47;;;11.97;;
47403;SDS011;33157;51.508;4.288;2024-03-08T11:25:55;16.10;;;12.85;;
47403;SDS011;33157;51.508;4.288;2024-03-08T11:36:41;18.73;;;13.38;;
47403;SDS011;33157;51.508;4.288;2024-03-08T11:41:24;17.55;;;11.88;;
47403;SDS011;33157;51.508;4.288;2024-03-08T11:46:25;19.30;;;12.85;;
47403;SDS011;33157;51.508;4.288;2024-03-08T11:51:28;19.92;;;13.30;;
47403;SDS011;33157;51.508;4.288;2024-03-08T11:56:33;17.40;;;12.18;;
47403;SDS011;33157;51.508;4.288;2024-03-08T12:01:34;17.27;;;12.27;;
47403;SDS011;33157;51.508;4.288;2024-03-08T12:06:38;18.50;;;13.13;;
47403;SDS011;33157;51.508;4.288;2024-03-08T12:11:39;18.80;;;12.23;;
47403;SDS011;33157;51.508;4.288;2024-03-08T12:16:41;15.88;;;10.75;;
47403;SDS011;33157;51.508;4.288;2024-03-08T12:26:48;16.60;;;11.20;;
47403;SDS011;33157;51.508;4.288;2024-03-08T12:31:52;19.30;;;11.45;;
47403;SDS011;33157;51.508;4.288;2024-03-08T12:36:54;19.85;;;11.65;;
47403;SDS011;33157;51.508;4.288;2024-03-08T12:41:56;19.58;;;11.82;;
47403;SDS011;33157;51.508;4.288;2024-03-08T12:47:00;18.20;;;12.13;;
47403;SDS011;33157;51.508;4.288;2024-03-08T12:52:01;18.05;;;12.25;;
47403;SDS011;33157;51.508;4.288;2024-03-08T12:57:01;14.55;;;11.25;;
47403;SDS011;33157;51.508;4.288;2024-03-08T13:02:03;17.13;;;11.37;;
47403;SDS011;33157;51.508;4.288;2024-03-08T13:07:05;19.42;;;11.73;;
47403;SDS011;33157;51.508;4.288;2024-03-08T13:12:06;18.08;;;12.65;;
47403;SDS011;33157;51.508;4.288;2024-03-08T13:17:08;16.25;;;11.27;;
47403;SDS011;33157;51.508;4.288;2024-03-08T13:22:11;20.20;;;12.05;;
47403;SDS011;33157;51.508;4.288;2024-03-08T13:27:16;17.13;;;11.38;;
47403;SDS011;33157;51.508;4.288;2024-03-08T13:32:19;16.45;;;11.73;;
47403;SDS011;33157;51.508;4.288;2024-03-08T13:37:20;15.82;;;12.20;;
47403;SDS011;33157;51.508;4.288;2024-03-08T13:42:21;18.13;;;10.75;;
47403;SDS011;33157;51.508;4.288;2024-03-08T13:47:22;19.00;;;11.90;;
47403;SDS011;33157;51.508;4.288;2024-03-08T13:52:24;16.00;;;10.65;;
47403;SDS011;33157;51.508;4.288;2024-03-08T13:57:25;15.90;;;11.10;;
47403;SDS011;33157;51.508;4.288;2024-03-08T14:02:25;16.77;;;12.32;;
47403;SDS011;33157;51.508;4.288;2024-03-08T14:07:28;15.85;;;11.23;;
47403;SDS011;33157;51.508;4.288;2024-03-08T14:12:33;15.45;;;11.38;;
47403;SDS011;33157;51.508;4.288;2024-03-08T14:17:35;16.17;;;10.82;;
47403;SDS011;33157;51.508;4.288;2024-03-08T14:22:36;18.55;;;11.10;;
47403;SDS011;33157;51.508;4.288;2024-03-08T14:27:36;44.13;;;12.27;;
47403;SDS011;33157;51.508;4.288;2024-03-08T14:32:37;14.57;;;11.60;;
47403;SDS011;33157;51.508;4.288;2024-03-08T14:37:39;14.65;;;11.02;;
47403;SDS011;33157;51.508;4.288;2024-03-08T14:42:41;17.20;;;10.80;;
47403;SDS011;33157;51.508;4.288;2024-03-08T14:47:42;13.00;;;9.77;;
47403;SDS011;33157;51.508;4.288;2024-03-08T14:52:43;16.30;;;10.40;;
47403;SDS011;33157;51.508;4.288;2024-03-08T14:57:44;13.88;;;10.23;;
47403;SDS011;33157;51.508;4.288;2024-03-08T15:02:45;16.10;;;10.48;;
47403;SDS011;33157;51.508;4.288;2024-03-08T15:07:47;20.73;;;9.55;;
47403;SDS011;33157;51.508;4.288;2024-03-08T15:12:49;26.90;;;11.03;;
47403;SDS011;33157;51.508;4.288;2024-03-08T15:17:49;16.55;;;10.38;;
47403;SDS011;33157;51.508;4.288;2024-03-08T15:22:51;17.75;;;10.57;;
47403;SDS011;33157;51.508;4.288;2024-03-08T15:27:58;17.23;;;9.65;;
47403;SDS011;33157;51.508;4.288;2024-03-08T15:32:58;15.38;;;10.13;;
47403;SDS011;33157;51.508;4.288;2024-03-08T15:38:03;24.05;;;10.57;;
47403;SDS011;33157;51.508;4.288;2024-03-08T15:43:04;16.85;;;9.50;;
47403;SDS011;33157;51.508;4.288;2024-03-08T15:48:05;17.75;;;10.05;;
47403;SDS011;33157;51.508;4.288;2024-03-08T15:53:06;17.35;;;9.45;;
47403;SDS011;33157;51.508;4.288;2024-03-08T15:58:07;17.45;;;8.93;;
47403;SDS011;33157;51.508;4.288;2024-03-08T16:03:07;16.88;;;8.50;;
47403;SDS011;33157;51.508;4.288;2024-03-08T16:08:11;14.00;;;8.88;;
47403;SDS011;33157;51.508;4.288;2024-03-08T16:13:15;12.55;;;8.88;;
47403;SDS011;33157;51.508;4.288;2024-03-08T16:18:17;15.83;;;8.30;;
47403;SDS011;33157;51.508;4.288;2024-03-08T16:23:24;13.48;;;8.32;;
47403;SDS011;33157;51.508;4.288;2024-03-08T16:28:24;19.05;;;8.93;;
47403;SDS011;33157;51.508;4.288;2024-03-08T16:33:38;13.43;;;8.65;;
47403;SDS011;33157;51.508;4.288;2024-03-08T16:38:39;15.88;;;9.05;;
47403;SDS011;33157;51.508;4.288;2024-03-08T16:43:40;15.37;;;8.80;;
47403;SDS011;33157;51.508;4.288;2024-03-08T16:48:43;12.88;;;8.48;;
47403;SDS011;33157;51.508;4.288;2024-03-08T16:53:44;15.25;;;8.15;;
47403;SDS011;33157;51.508;4.288;2024-03-08T16:58:47;15.40;;;8.63;;
47403;SDS011;33157;51.508;4.288;2024-03-08T17:03:47;14.73;;;8.50;;
47403;SDS011;33157;51.508;4.288;2024-03-08T17:08:48;15.18;;;8.02;;
47403;SDS011;33157;51.508;4.288;2024-03-08T17:13:49;14.50;;;9.82;;
47403;SDS011;33157;51.508;4.288;2024-03-08T17:18:49;17.05;;;8.70;;
47403;SDS011;33157;51.508;4.288;2024-03-08T17:23:50;13.57;;;8.60;;
47403;SDS011;33157;51.508;4.288;2024-03-08T17:28:51;12.77;;;8.82;;
47403;SDS011;33157;51.508;4.288;2024-03-08T17:33:51;19.10;;;9.37;;
47403;SDS011;33157;51.508;4.288;2024-03-08T17:38:51;13.60;;;8.88;;
47403;SDS011;33157;51.508;4.288;2024-03-08T17:43:53;13.77;;;8.18;;
47403;SDS011;33157;51.508;4.288;2024-03-08T17:48:53;13.10;;;8.98;;
47403;SDS011;33157;51.508;4.288;2024-03-08T17:53:53;14.05;;;8.95;;
47403;SDS011;33157;51.508;4.288;2024-03-08T17:58:54;15.98;;;9.30;;
47403;SDS011;33157;51.508;4.288;2024-03-08T18:03:55;15.83;;;8.27;;
47403;SDS011;33157;51.508;4.288;2024-03-08T18:08:56;17.17;;;9.25;;
47403;SDS011;33157;51.508;4.288;2024-03-08T18:13:56;14.80;;;9.00;;
47403;SDS011;33157;51.508;4.288;2024-03-08T18:18:57;15.80;;;10.13;;
47403;SDS011;33157;51.508;4.288;2024-03-08T18:23:57;15.38;;;9.52;;
47403;SDS011;33157;51.508;4.288;2024-03-08T18:28:57;15.00;;;9.10;;
47403;SDS011;33157;51.508;4.288;2024-03-08T18:33:58;15.68;;;8.75;;
47403;SDS011;33157;51.508;4.288;2024-03-08T18:39:06;13.68;;;9.05;;
47403;SDS011;33157;51.508;4.288;2024-03-08T18:44:10;14.45;;;10.00;;
47403;SDS011;33157;51.508;4.288;2024-03-08T18:49:10;14.15;;;8.95;;
47403;SDS011;33157;51.508;4.288;2024-03-08T18:54:11;17.08;;;9.05;;
47403;SDS011;33157;51.508;4.288;2024-03-08T18:59:12;15.70;;;10.13;;
47403;SDS011;33157;51.508;4.288;2024-03-08T19:04:13;16.77;;;9.13;;
47403;SDS011;33157;51.508;4.288;2024-03-08T19:09:14;16.27;;;9.30;;
47403;SDS011;33157;51.508;4.288;2024-03-08T19:14:15;14.13;;;9.65;;
47403;SDS011;33157;51.508;4.288;2024-03-08T19:19:18;13.50;;;8.93;;
47403;SDS011;33157;51.508;4.288;2024-03-08T19:24:21;15.35;;;9.50;;
47403;SDS011;33157;51.508;4.288;2024-03-08T19:29:21;14.07;;;8.55;;
47403;SDS011;33157;51.508;4.288;2024-03-08T19:34:25;15.38;;;9.48;;
47403;SDS011;33157;51.508;4.288;2024-03-08T19:39:26;19.42;;;9.70;;
47403;SDS011;33157;51.508;4.288;2024-03-08T19:44:27;15.90;;;10.60;;
47403;SDS011;33157;51.508;4.288;2024-03-08T19:49:28;15.85;;;9.90;;
47403;SDS011;33157;51.508;4.288;2024-03-08T19:54:28;16.80;;;10.52;;
47403;SDS011;33157;51.508;4.288;2024-03-08T19:59:29;17.55;;;11.57;;
47403;SDS011;33157;51.508;4.288;2024-03-08T20:04:30;14.73;;;9.67;;
47403;SDS011;33157;51.508;4.288;2024-03-08T20:09:31;16.63;;;9.98;;
47403;SDS011;33157;51.508;4.288;2024-03-08T20:14:32;17.40;;;11.73;;
47403;SDS011;33157;51.508;4.288;2024-03-08T20:19:35;18.95;;;11.20;;
47403;SDS011;33157;51.508;4.288;2024-03-08T20:24:36;18.33;;;11.03;;
47403;SDS011;33157;51.508;4.288;2024-03-08T20:29:38;24.03;;;14.03;;
47403;SDS011;33157;51.508;4.288;2024-03-08T20:34:40;17.25;;;11.18;;
47403;SDS011;33157;51.508;4.288;2024-03-08T20:39:45;26.10;;;14.93;;
47403;SDS011;33157;51.508;4.288;2024-03-08T20:44:46;17.10;;;10.93;;
47403;SDS011;33157;51.508;4.288;2024-03-08T20:49:46;21.08;;;12.07;;
47403;SDS011;33157;51.508;4.288;2024-03-08T20:54:47;19.23;;;12.05;;
47403;SDS011;33157;51.508;4.288;2024-03-08T20:59:47;17.15;;;11.25;;
47403;SDS011;33157;51.508;4.288;2024-03-08T21:04:49;19.73;;;11.60;;
47403;SDS011;33157;51.508;4.288;2024-03-08T21:09:49;20.05;;;13.02;;
47403;SDS011;33157;51.508;4.288;2024-03-08T21:14:50;17.40;;;11.80;;
47403;SDS011;33157;51.508;4.288;2024-03-08T21:19:52;19.55;;;12.15;;
47403;SDS011;33157;51.508;4.288;2024-03-08T21:24:52;19.35;;;12.35;;
47403;SDS011;33157;51.508;4.288;2024-03-08T21:29:53;20.70;;;11.65;;
47403;SDS011;33157;51.508;4.288;2024-03-08T21:34:53;19.05;;;12.45;;
47403;SDS011;33157;51.508;4.288;2024-03-08T21:39:55;20.73;;;12.38;;
47403;SDS011;33157;51.508;4.288;2024-03-08T21:44:56;22.58;;;13.77;;
47403;SDS011;33157;51.508;4.288;2024-03-08T21:49:57;20.10;;;11.93;;
47403;SDS011;33157;51.508;4.288;2024-03-08T21:55:00;21.17;;;12.68;;
47403;SDS011;33157;51.508;4.288;2024-03-08T22:00:02;22.40;;;12.70;;
47403;SDS011;33157;51.508;4.288;2024-03-08T22:05:03;20.80;;;13.00;;
47403;SDS011;33157;51.508;4.288;2024-03-08T22:10:05;21.98;;;13.90;;
47403;SDS011;33157;51.508;4.288;2024-03-08T22:15:08;22.58;;;13.18;;
47403;SDS011;33157;51.508;4.288;2024-03-08T22:20:10;21.45;;;13.70;;
47403;SDS011;33157;51.508;4.288;2024-03-08T22:25:19;19.48;;;12.80;;
47403;SDS011;33157;51.508;4.288;2024-03-08T22:30:23;22.83;;;14.07;;
47403;SDS011;33157;51.508;4.288;2024-03-08T22:35:24;22.08;;;12.13;;
47403;SDS011;33157;51.508;4.288;2024-03-08T22:40:24;19.23;;;13.07;;
47403;SDS011;33157;51.508;4.288;2024-03-08T22:45:25;22.85;;;12.95;;
47403;SDS011;33157;51.508;4.288;2024-03-08T22:50:27;23.15;;;13.13;;
47403;SDS011;33157;51.508;4.288;2024-03-08T22:55:27;20.00;;;12.43;;
47403;SDS011;33157;51.508;4.288;2024-03-08T23:00:28;21.50;;;14.05;;
47403;SDS011;33157;51.508;4.288;2024-03-08T23:05:37;20.38;;;13.18;;
47403;SDS011;33157;51.508;4.288;2024-03-08T23:10:37;21.15;;;13.15;;
47403;SDS011;33157;51.508;4.288;2024-03-08T23:15:39;18.92;;;13.05;;
47403;SDS011;33157;51.508;4.288;2024-03-08T23:20:41;20.70;;;13.77;;
47403;SDS011;33157;51.508;4.288;2024-03-08T23:25:44;23.30;;;14.90;;
47403;SDS011;33157;51.508;4.288;2024-03-08T23:30:45;22.13;;;13.40;;
47403;SDS011;33157;51.508;4.288;2024-03-08T23:35:45;23.15;;;13.77;;
47403;SDS011;33157;51.508;4.288;2024-03-08T23:40:46;22.15;;;14.48;;
47403;SDS011;33157;51.508;4.288;2024-03-08T23:45:47;21.95;;;15.32;;
47403;SDS011;33157;51.508;4.288;2024-03-08T23:50:48;24.77;;;15.07;;
47403;SDS011;33157;51.508;4.288;2024-03-08T23:55:49;26.70;;;15.07;;
